createdAt,value
2019-05-20T00:00:50.924Z,100.00
2019-05-20T00:03:19.654Z,100.00
2019-05-20T00:05:48.541Z,100.00
2019-05-20T00:08:17.365Z,100.00
2019-05-20T00:10:46.144Z,100.00
2019-05-20T00:13:14.859Z,100.00
2019-05-20T00:15:43.652Z,100.00
2019-05-20T00:18:12.421Z,100.00
2019-05-20T00:20:41.219Z,100.00
2019-05-20T00:23:09.945Z,100.00
2019-05-20T00:25:38.764Z,100.00
2019-05-20T00:28:07.504Z,100.00
2019-05-20T00:30:36.334Z,100.00
2019-05-20T00:33:05.367Z,99.51
2019-05-20T00:35:34.226Z,99.32
2019-05-20T00:38:02.957Z,98.44
2019-05-20T00:40:31.688Z,99.13
2019-05-20T00:43:00.431Z,99.84
2019-05-20T00:45:29.246Z,99.30
2019-05-20T00:47:57.967Z,99.56
2019-05-20T00:50:26.712Z,100.00
2019-05-20T00:52:55.530Z,100.00
2019-05-20T00:55:26.126Z,100.00
2019-05-20T00:57:54.936Z,99.59
2019-05-20T01:00:24.216Z,99.97
2019-05-20T01:02:57.021Z,100.00
2019-05-20T01:05:23.527Z,100.00
2019-05-20T01:07:52.278Z,100.00
2019-05-20T01:10:21.193Z,100.00
2019-05-20T01:12:50.010Z,100.00
2019-05-20T01:15:19.185Z,100.00
2019-05-20T01:17:47.934Z,100.00
2019-05-20T01:20:17.273Z,100.00
2019-05-20T01:22:46.028Z,100.00
2019-05-20T01:25:14.884Z,100.00
2019-05-20T01:27:43.622Z,100.00
2019-05-20T01:30:13.107Z,100.00
2019-05-20T01:32:42.227Z,100.00
2019-05-20T01:35:12.713Z,100.00
2019-05-20T01:37:41.688Z,100.00
2019-05-20T01:40:10.768Z,100.00
2019-05-20T01:42:39.584Z,100.00
2019-05-20T01:45:08.845Z,100.00
2019-05-20T01:47:37.635Z,100.00
2019-05-20T01:50:06.686Z,100.00
2019-05-20T01:52:35.462Z,100.00
2019-05-20T01:55:04.621Z,100.00
2019-05-20T01:57:33.398Z,100.00
2019-05-20T02:00:02.134Z,100.00
2019-05-20T02:02:31.201Z,100.00
2019-05-20T02:05:00.032Z,100.00
2019-05-20T02:07:28.803Z,100.00
2019-05-20T02:09:57.799Z,100.00
2019-05-20T02:12:26.538Z,100.00
2019-05-20T02:15:01.063Z,100.00
2019-05-20T02:17:29.839Z,100.00
2019-05-20T02:19:58.580Z,100.00
2019-05-20T02:22:27.360Z,100.00
2019-05-20T02:24:56.131Z,100.00
2019-05-20T02:27:24.943Z,100.00
2019-05-20T02:29:53.698Z,100.00
2019-05-20T02:32:22.420Z,100.00
2019-05-20T02:34:51.190Z,100.00
2019-05-20T02:37:20.013Z,100.00
2019-05-20T02:39:48.757Z,100.00
2019-05-20T02:42:17.655Z,100.00
2019-05-20T02:44:46.471Z,100.00
2019-05-20T02:47:15.199Z,100.00
2019-05-20T02:49:44.026Z,100.00
2019-05-20T02:52:12.757Z,100.00
2019-05-20T02:54:41.777Z,100.00
2019-05-20T02:57:10.569Z,100.00
2019-05-20T02:59:39.576Z,100.00
2019-05-20T03:02:08.311Z,100.00
2019-05-20T03:04:37.495Z,100.00
2019-05-20T03:07:06.453Z,100.00
2019-05-20T03:09:35.361Z,100.00
2019-05-20T03:12:04.173Z,100.00
2019-05-20T03:14:32.915Z,100.00
2019-05-20T03:17:01.700Z,100.00
2019-05-20T03:19:30.478Z,100.00
2019-05-20T03:21:59.191Z,100.00
2019-05-20T03:24:27.943Z,100.00
2019-05-20T03:26:56.674Z,100.00
2019-05-20T03:29:25.561Z,100.00
2019-05-20T03:31:54.507Z,100.00
2019-05-20T03:34:43.542Z,100.00
2019-05-20T03:36:53.723Z,100.00
2019-05-20T03:39:22.619Z,100.00
2019-05-20T03:41:51.454Z,100.00
2019-05-20T03:44:20.209Z,100.00
2019-05-20T03:46:49.218Z,100.00
2019-05-20T03:49:18.073Z,100.00
2019-05-20T03:51:46.833Z,100.00
2019-05-20T03:54:15.651Z,100.00
2019-05-20T03:56:44.394Z,100.00
2019-05-20T03:59:13.198Z,100.00
2019-05-20T04:01:41.970Z,100.00
2019-05-20T04:04:10.713Z,100.00
2019-05-20T04:06:39.451Z,100.00
2019-05-20T04:09:08.367Z,100.00
2019-05-20T04:11:37.302Z,100.00
2019-05-20T04:14:06.115Z,100.00
2019-05-20T04:16:34.971Z,100.00
2019-05-20T04:19:04.009Z,100.00
2019-05-20T04:21:32.793Z,100.00
2019-05-20T04:24:02.210Z,100.00
2019-05-20T04:26:31.137Z,100.00
2019-05-20T04:28:59.866Z,100.00
2019-05-20T04:31:28.607Z,100.00
2019-05-20T04:33:57.479Z,100.00
2019-05-20T04:36:26.312Z,100.00
2019-05-20T04:38:58.001Z,100.00
2019-05-20T04:41:26.788Z,100.00
2019-05-20T04:43:55.526Z,100.00
2019-05-20T04:46:24.439Z,100.00
2019-05-20T04:48:53.157Z,100.00
2019-05-20T04:51:21.898Z,100.00
2019-05-20T04:53:50.655Z,100.00
2019-05-20T04:56:19.531Z,100.00
2019-05-20T04:58:48.327Z,100.00
2019-05-20T05:01:17.133Z,100.00
2019-05-20T05:03:45.857Z,100.00
2019-05-20T05:06:14.919Z,99.12
2019-05-20T05:08:43.784Z,98.77
2019-05-20T05:11:12.783Z,97.86
2019-05-20T05:13:41.655Z,97.52
2019-05-20T05:16:10.573Z,96.61
2019-05-20T05:18:39.381Z,95.82
2019-05-20T05:21:08.300Z,95.96
2019-05-20T05:23:37.189Z,95.62
2019-05-20T05:26:06.427Z,95.72
2019-05-20T05:28:35.403Z,95.38
2019-05-20T05:31:04.161Z,94.90
2019-05-20T05:33:33.473Z,95.67
2019-05-20T05:36:02.222Z,96.15
2019-05-20T05:38:31.027Z,95.55
2019-05-20T05:40:59.785Z,95.72
2019-05-20T05:43:28.663Z,95.70
2019-05-20T05:45:57.758Z,94.86
2019-05-20T05:48:26.496Z,95.28
2019-05-20T05:50:55.245Z,95.60
2019-05-20T05:53:23.961Z,95.09
2019-05-20T05:55:52.808Z,94.82
2019-05-20T05:58:21.527Z,94.36
2019-05-20T06:00:50.272Z,95.01
2019-05-20T06:03:19.068Z,94.31
2019-05-20T06:05:47.901Z,94.30
2019-05-20T06:08:16.638Z,94.78
2019-05-20T06:10:45.377Z,94.86
2019-05-20T06:13:14.247Z,95.03
2019-05-20T06:15:42.974Z,94.90
2019-05-20T06:18:11.724Z,95.10
2019-05-20T06:20:40.661Z,95.01
2019-05-20T06:23:09.517Z,95.86
2019-05-20T06:25:38.213Z,95.64
2019-05-20T06:28:06.954Z,95.76
2019-05-20T06:30:38.910Z,95.54
2019-05-20T06:33:07.743Z,95.60
2019-05-20T06:35:36.962Z,96.40
2019-05-20T06:38:09.315Z,96.30
2019-05-20T06:40:38.286Z,96.15
2019-05-20T06:43:07.183Z,95.36
2019-05-20T06:45:35.926Z,94.91
2019-05-20T06:48:04.862Z,95.24
2019-05-20T06:50:33.736Z,95.05
2019-05-20T06:53:02.625Z,95.84
2019-05-20T06:55:31.485Z,95.85
2019-05-20T06:58:00.370Z,95.22
2019-05-20T07:00:37.117Z,94.48
2019-05-20T07:03:06.202Z,95.65
2019-05-20T07:05:35.210Z,94.21
2019-05-20T07:08:04.116Z,94.22
2019-05-20T07:10:33.447Z,93.50
2019-05-20T07:13:02.335Z,93.12
2019-05-20T07:15:31.106Z,93.18
2019-05-20T07:18:00.165Z,92.52
2019-05-20T07:20:28.972Z,91.83
2019-05-20T07:22:57.749Z,92.49
2019-05-20T07:25:26.555Z,91.53
2019-05-20T07:27:55.324Z,91.68
2019-05-20T07:30:24.138Z,92.35
2019-05-20T07:32:52.967Z,91.01
2019-05-20T07:35:30.057Z,91.48
2019-05-20T07:37:52.196Z,91.26
2019-05-20T07:40:31.139Z,90.27
2019-05-20T07:42:59.964Z,90.05
2019-05-20T07:45:30.710Z,89.57
2019-05-20T07:47:59.752Z,89.49
2019-05-20T07:50:29.424Z,88.60
2019-05-20T07:53:00.534Z,89.38
2019-05-20T07:55:32.861Z,89.27
2019-05-20T07:58:05.901Z,88.91
2019-05-20T08:00:34.902Z,89.44
2019-05-20T08:03:04.398Z,88.48
2019-05-20T08:05:33.279Z,88.75
2019-05-20T08:08:02.081Z,87.52
2019-05-20T08:10:30.934Z,86.89
2019-05-20T08:13:00.105Z,86.24
2019-05-20T08:15:28.948Z,86.34
2019-05-20T08:17:57.773Z,85.38
2019-05-20T08:20:26.663Z,86.96
2019-05-20T08:22:55.494Z,83.22
2019-05-20T08:25:24.236Z,85.23
2019-05-20T08:27:53.124Z,83.98
2019-05-20T08:30:32.123Z,84.14
2019-05-20T08:33:01.166Z,84.09
2019-05-20T08:35:29.906Z,82.75
2019-05-20T08:37:58.819Z,83.21
2019-05-20T08:40:27.666Z,83.24
2019-05-20T08:42:56.391Z,83.46
2019-05-20T08:45:25.435Z,82.19
2019-05-20T08:47:54.228Z,82.58
2019-05-20T08:50:23.027Z,82.50
2019-05-20T08:52:51.894Z,84.33
2019-05-20T08:55:21.147Z,84.41
2019-05-20T08:57:50.110Z,84.67
2019-05-20T09:00:23.428Z,85.04
2019-05-20T09:02:51.890Z,85.52
2019-05-20T09:05:20.860Z,85.92
2019-05-20T09:08:02.119Z,86.10
2019-05-20T09:10:21.373Z,86.09
2019-05-20T09:12:50.129Z,86.51
2019-05-20T09:15:19.292Z,86.10
2019-05-20T09:17:48.096Z,86.94
2019-05-20T09:20:17.192Z,85.77
2019-05-20T09:22:45.933Z,85.27
2019-05-20T09:25:15.154Z,83.95
2019-05-20T09:27:43.848Z,81.99
2019-05-20T09:30:13.436Z,82.93
2019-05-20T09:32:43.309Z,84.66
2019-05-20T09:35:12.387Z,85.30
2019-05-20T09:37:41.114Z,84.88
2019-05-20T09:40:10.505Z,84.85
2019-05-20T09:42:40.976Z,83.93
2019-05-20T09:45:10.130Z,84.57
2019-05-20T09:47:38.942Z,83.88
2019-05-20T09:50:08.106Z,83.37
2019-05-20T09:52:37.016Z,80.37
2019-05-20T09:55:06.065Z,81.16
2019-05-20T09:57:34.879Z,81.53
2019-05-20T10:00:03.828Z,82.32
2019-05-20T10:02:37.825Z,82.05
2019-05-20T10:05:04.091Z,81.36
2019-05-20T10:07:32.892Z,81.64
2019-05-20T10:10:01.759Z,80.84
2019-05-20T10:12:45.262Z,81.77
2019-05-20T10:15:01.077Z,81.55
2019-05-20T10:17:29.850Z,81.73
2019-05-20T10:19:59.386Z,80.19
2019-05-20T10:22:28.193Z,80.50
2019-05-20T10:24:56.903Z,79.45
2019-05-20T10:27:25.913Z,78.72
2019-05-20T10:29:54.656Z,78.63
2019-05-20T10:32:23.515Z,78.64
2019-05-20T10:34:52.643Z,79.75
2019-05-20T10:37:21.429Z,79.21
2019-05-20T10:39:50.161Z,79.25
2019-05-20T10:42:19.117Z,77.94
2019-05-20T10:44:47.816Z,78.95
2019-05-20T10:47:16.548Z,78.37
2019-05-20T10:49:45.266Z,76.79
2019-05-20T10:52:14.023Z,77.41
2019-05-20T10:54:42.752Z,76.94
2019-05-20T10:57:11.508Z,77.46
2019-05-20T10:59:40.309Z,77.32
2019-05-20T11:02:09.132Z,76.54
2019-05-20T11:04:37.917Z,77.84
2019-05-20T11:07:06.647Z,78.23
2019-05-20T11:09:35.408Z,79.37
2019-05-20T11:12:04.213Z,79.25
2019-05-20T11:14:32.975Z,77.82
2019-05-20T11:17:01.982Z,76.55
2019-05-20T11:19:30.716Z,77.85
2019-05-20T11:21:59.505Z,78.16
2019-05-20T11:24:28.244Z,77.54
2019-05-20T11:26:57.099Z,76.78
2019-05-20T11:29:25.832Z,76.75
2019-05-20T11:31:54.646Z,77.36
2019-05-20T11:34:23.446Z,78.42
2019-05-20T11:36:52.350Z,75.46
2019-05-20T11:39:32.580Z,77.08
2019-05-20T11:41:53.762Z,78.04
2019-05-20T11:44:22.203Z,77.94
2019-05-20T11:46:51.027Z,77.47
2019-05-20T11:49:19.742Z,79.01
2019-05-20T11:51:48.556Z,78.17
2019-05-20T11:54:17.297Z,79.03
2019-05-20T11:56:46.100Z,78.89
2019-05-20T11:59:14.825Z,77.97
2019-05-20T12:01:43.830Z,77.79
2019-05-20T12:04:12.560Z,76.93
2019-05-20T12:06:41.562Z,76.29
2019-05-20T12:09:10.357Z,75.70
2019-05-20T12:11:39.093Z,76.26
2019-05-20T12:14:07.891Z,77.17
2019-05-20T12:16:36.671Z,76.92
2019-05-20T12:19:05.485Z,75.88
2019-05-20T12:21:34.230Z,75.74
2019-05-20T12:24:03.096Z,76.74
2019-05-20T12:26:31.848Z,77.18
2019-05-20T12:29:00.587Z,77.86
2019-05-20T12:31:29.314Z,79.59
2019-05-20T12:33:58.174Z,80.20
2019-05-20T12:36:26.904Z,80.82
2019-05-20T12:38:55.656Z,80.14
2019-05-20T12:41:24.415Z,80.79
2019-05-20T12:44:10.106Z,80.56
2019-05-20T12:46:23.851Z,80.73
2019-05-20T12:48:52.700Z,80.87
2019-05-20T12:51:21.483Z,80.91
2019-05-20T12:53:50.241Z,80.87
2019-05-20T12:56:19.890Z,80.10
2019-05-20T12:58:48.721Z,79.37
2019-05-20T13:01:17.454Z,80.02
2019-05-20T13:03:46.204Z,78.64
2019-05-20T13:06:14.994Z,77.93
2019-05-20T13:08:43.865Z,77.23
2019-05-20T13:11:12.585Z,76.32
2019-05-20T13:13:41.400Z,75.11
2019-05-20T13:16:10.233Z,74.64
2019-05-20T13:18:54.648Z,75.07
2019-05-20T13:21:10.034Z,74.34
2019-05-20T13:23:38.782Z,73.75
2019-05-20T13:26:07.536Z,76.06
2019-05-20T13:28:36.311Z,75.57
2019-05-20T13:31:05.110Z,73.12
2019-05-20T13:33:33.843Z,69.40
2019-05-20T13:36:02.657Z,70.04
2019-05-20T13:38:31.409Z,71.82
2019-05-20T13:41:00.147Z,73.98
2019-05-20T13:43:28.931Z,74.00
2019-05-20T13:45:57.655Z,75.46
2019-05-20T13:48:26.495Z,76.67
2019-05-20T13:50:55.213Z,76.37
2019-05-20T13:53:24.054Z,77.51
2019-05-20T13:55:52.789Z,77.21
2019-05-20T13:58:21.519Z,77.79
2019-05-20T14:00:50.272Z,76.67
2019-05-20T14:03:19.427Z,77.09
2019-05-20T14:05:48.162Z,77.41
2019-05-20T14:08:16.889Z,78.07
2019-05-20T14:11:01.293Z,78.23
2019-05-20T14:13:16.126Z,76.36
2019-05-20T14:15:44.873Z,77.03
2019-05-20T14:18:13.605Z,78.34
2019-05-20T14:20:42.452Z,78.58
2019-05-20T14:23:12.939Z,78.59
2019-05-20T14:25:42.590Z,80.52
2019-05-20T14:28:11.574Z,80.79
2019-05-20T14:30:40.542Z,80.86
2019-05-20T14:33:09.417Z,80.88
2019-05-20T14:35:45.124Z,80.61
2019-05-20T14:38:25.989Z,80.57
2019-05-20T14:41:00.982Z,80.51
2019-05-20T14:43:35.983Z,80.48
2019-05-20T14:46:00.423Z,81.86
2019-05-20T14:48:29.343Z,82.03
2019-05-20T14:51:08.493Z,81.65
2019-05-20T14:53:37.420Z,82.08
2019-05-20T14:56:06.442Z,81.78
2019-05-20T14:58:35.291Z,82.51
2019-05-20T15:01:18.374Z,81.94
2019-05-20T15:03:47.244Z,81.49
2019-05-20T15:06:16.424Z,82.28
2019-05-20T15:08:45.271Z,82.33
2019-05-20T15:11:15.401Z,82.88
2019-05-20T15:13:44.247Z,83.42
2019-05-20T15:16:13.341Z,83.05
2019-05-20T15:18:42.541Z,82.86
2019-05-20T15:21:11.498Z,83.34
2019-05-20T15:23:49.338Z,84.28
2019-05-20T15:26:33.237Z,84.95
2019-05-20T15:29:03.239Z,85.34
2019-05-20T15:31:49.776Z,89.35
2019-05-20T15:34:25.150Z,90.66
2019-05-20T15:36:54.602Z,90.01
2019-05-20T15:39:23.828Z,91.26
2019-05-20T15:41:59.796Z,93.51
2019-05-20T15:44:28.652Z,95.14
2019-05-20T15:46:57.403Z,95.87
2019-05-20T15:49:26.530Z,97.37
2019-05-20T15:51:55.372Z,96.62
2019-05-20T15:54:25.633Z,97.22
2019-05-20T15:56:55.908Z,97.16
2019-05-20T15:59:25.065Z,99.10
2019-05-20T16:02:06.675Z,100.00
2019-05-20T16:04:35.563Z,100.00
2019-05-20T16:07:07.911Z,100.00
2019-05-20T16:09:36.938Z,100.00
2019-05-20T16:12:06.014Z,100.00
2019-05-20T16:14:35.097Z,100.00
2019-05-20T16:17:04.072Z,100.00
2019-05-20T16:19:32.890Z,100.00
2019-05-20T16:22:01.880Z,100.00
2019-05-20T16:24:38.400Z,100.00
2019-05-20T16:27:10.265Z,100.00
2019-05-20T16:29:41.696Z,100.00
2019-05-20T16:32:13.893Z,100.00
2019-05-20T16:34:50.431Z,100.00
2019-05-20T16:37:21.304Z,100.00
2019-05-20T16:39:56.699Z,100.00
2019-05-20T16:42:25.641Z,100.00
2019-05-20T16:44:54.629Z,100.00
2019-05-20T16:48:03.749Z,100.00
2019-05-20T16:50:37.860Z,100.00
2019-05-20T16:53:00.114Z,100.00
2019-05-20T17:01:16.649Z,100.00
2019-05-20T17:03:45.807Z,100.00
2019-05-20T17:06:14.893Z,100.00
2019-05-20T17:08:43.890Z,100.00
2019-05-20T17:11:12.779Z,100.00
2019-05-20T17:13:41.678Z,100.00
2019-05-20T17:16:12.063Z,100.00
2019-05-20T17:18:56.037Z,100.00
2019-05-20T17:21:16.050Z,100.00
2019-05-20T17:23:59.063Z,100.00
2019-05-20T17:26:28.236Z,100.00
2019-05-20T17:29:01.201Z,100.00
2019-05-20T17:31:30.907Z,100.00
2019-05-20T17:34:00.056Z,100.00
2019-05-20T17:36:44.545Z,100.00
2019-05-20T17:39:24.873Z,100.00
2019-05-20T17:41:53.953Z,100.00
2019-05-20T17:44:22.801Z,100.00
2019-05-20T17:46:51.709Z,100.00
2019-05-20T17:49:20.422Z,100.00
2019-05-20T17:51:49.320Z,100.00
2019-05-20T17:54:18.599Z,100.00
2019-05-20T17:56:47.494Z,100.00
2019-05-20T17:59:16.592Z,100.00
2019-05-20T18:01:45.492Z,100.00
2019-05-20T18:04:14.295Z,100.00
2019-05-20T18:06:42.998Z,100.00
2019-05-20T18:09:42.337Z,100.00
2019-05-20T18:12:40.298Z,100.00
2019-05-20T18:15:08.219Z,100.00
2019-05-20T18:18:17.297Z,100.00
2019-05-20T18:20:46.144Z,100.00
2019-05-20T18:23:15.081Z,100.00
2019-05-20T18:26:11.632Z,100.00
2019-05-20T18:29:07.003Z,100.00
2019-05-20T18:31:35.832Z,100.00
2019-05-20T18:34:04.750Z,100.00
2019-05-20T18:36:43.817Z,100.00
2019-05-20T18:39:12.683Z,100.00
2019-05-20T18:41:41.518Z,100.00
2019-05-20T18:44:13.202Z,100.00
2019-05-20T18:46:40.759Z,100.00
2019-05-20T18:49:09.552Z,100.00
2019-05-20T18:51:38.318Z,100.00
2019-05-20T18:54:07.128Z,100.00
2019-05-20T18:56:35.891Z,100.00
2019-05-20T18:59:05.083Z,100.00
2019-05-20T19:01:46.082Z,100.00
2019-05-20T19:04:04.369Z,100.00
2019-05-20T19:06:33.139Z,100.00
2019-05-20T19:09:01.924Z,100.00
2019-05-20T19:11:30.828Z,100.00
2019-05-20T19:14:00.412Z,100.00
2019-05-20T19:16:29.232Z,100.00
2019-05-20T19:19:04.585Z,100.00
2019-05-20T19:21:33.312Z,100.00
2019-05-20T19:24:02.173Z,100.00
2019-05-20T19:26:31.055Z,100.00
2019-05-20T19:28:59.928Z,100.00
2019-05-20T19:31:28.681Z,100.00
2019-05-20T19:33:57.503Z,100.00
2019-05-20T19:36:26.279Z,100.00
2019-05-20T19:38:55.043Z,100.00
2019-05-20T19:41:23.941Z,100.00
2019-05-20T19:43:52.767Z,100.00
2019-05-20T19:46:21.605Z,100.00
2019-05-20T19:48:50.371Z,100.00
2019-05-20T19:51:19.311Z,100.00
2019-05-20T19:53:48.033Z,100.00
2019-05-20T19:56:16.847Z,100.00
2019-05-20T19:58:45.588Z,100.00
2019-05-20T20:01:14.352Z,100.00
2019-05-20T20:03:43.069Z,100.00
2019-05-20T20:06:11.985Z,100.00
2019-05-20T20:08:40.801Z,100.00
2019-05-20T20:11:09.707Z,100.00
2019-05-20T20:13:38.388Z,100.00
2019-05-20T20:16:07.309Z,100.00
2019-05-20T20:18:36.090Z,100.00
2019-05-20T20:21:04.941Z,100.00
2019-05-20T20:23:33.734Z,100.00
2019-05-20T20:26:02.749Z,100.00
2019-05-20T20:28:31.444Z,100.00
2019-05-20T20:31:00.204Z,100.00
2019-05-20T20:33:28.957Z,100.00
2019-05-20T20:35:57.720Z,100.00
2019-05-20T20:38:26.494Z,100.00
2019-05-20T20:40:55.243Z,100.00
2019-05-20T20:43:23.959Z,100.00
2019-05-20T20:45:52.722Z,100.00
2019-05-20T20:48:29.569Z,100.00
2019-05-20T20:50:58.289Z,100.00
2019-05-20T20:53:27.117Z,100.00
2019-05-20T20:55:55.957Z,100.00
2019-05-20T20:58:24.677Z,100.00
2019-05-20T21:00:53.541Z,100.00
2019-05-20T21:03:22.272Z,100.00
2019-05-20T21:05:51.037Z,100.00
2019-05-20T21:08:19.937Z,100.00
2019-05-20T21:10:48.745Z,100.00
2019-05-20T21:13:17.456Z,100.00
2019-05-20T21:15:48.086Z,100.00
2019-05-20T21:18:16.804Z,100.00
2019-05-20T21:20:45.635Z,100.00
2019-05-20T21:23:14.420Z,100.00
2019-05-20T21:25:43.225Z,100.00
2019-05-20T21:28:11.975Z,100.00
2019-05-20T21:30:40.808Z,100.00
2019-05-20T21:33:09.926Z,100.00
2019-05-20T21:35:38.813Z,100.00
2019-05-20T21:38:07.601Z,100.00
2019-05-20T21:40:36.419Z,100.00
2019-05-20T21:43:05.815Z,100.00
2019-05-20T21:45:34.601Z,100.00
2019-05-20T21:48:03.304Z,100.00
2019-05-20T21:50:32.206Z,100.00
2019-05-20T21:53:00.918Z,100.00
2019-05-20T21:55:29.655Z,100.00
2019-05-20T21:57:58.428Z,100.00
2019-05-20T22:00:33.685Z,100.00
2019-05-20T22:03:02.465Z,100.00
2019-05-20T22:05:31.163Z,100.00
2019-05-20T22:07:59.949Z,100.00
2019-05-20T22:10:28.776Z,100.00
2019-05-20T22:12:57.530Z,100.00
2019-05-20T22:15:26.365Z,100.00
2019-05-20T22:17:55.260Z,100.00
2019-05-20T22:20:23.996Z,100.00
2019-05-20T22:23:10.533Z,100.00
2019-05-20T22:25:39.265Z,100.00
2019-05-20T22:28:08.097Z,100.00
2019-05-20T22:30:36.821Z,100.00
2019-05-20T22:33:05.593Z,100.00
2019-05-20T22:35:34.371Z,100.00
2019-05-20T22:38:03.082Z,100.00
2019-05-20T22:40:31.975Z,100.00
2019-05-20T22:43:02.789Z,100.00
2019-05-20T22:45:31.745Z,100.00
2019-05-20T22:48:00.558Z,100.00
2019-05-20T22:50:29.382Z,100.00
2019-05-20T22:52:58.424Z,100.00
2019-05-20T22:55:27.159Z,100.00
2019-05-20T22:57:55.890Z,100.00
2019-05-20T23:00:24.761Z,100.00
2019-05-20T23:02:53.601Z,100.00
2019-05-20T23:05:22.303Z,100.00
2019-05-20T23:07:51.089Z,100.00
2019-05-20T23:10:20.021Z,100.00
2019-05-20T23:12:48.848Z,100.00
2019-05-20T23:15:17.601Z,100.00
2019-05-20T23:17:46.349Z,100.00
2019-05-20T23:20:15.074Z,100.00
2019-05-20T23:22:43.841Z,100.00
2019-05-20T23:25:12.652Z,100.00
2019-05-20T23:27:41.393Z,100.00
2019-05-20T23:30:10.654Z,100.00
2019-05-20T23:32:39.427Z,100.00
2019-05-20T23:35:08.620Z,100.00
2019-05-20T23:37:37.446Z,100.00
2019-05-20T23:40:06.445Z,100.00
2019-05-20T23:42:35.176Z,100.00
2019-05-20T23:45:04.335Z,100.00
2019-05-20T23:47:33.079Z,100.00
2019-05-20T23:50:01.850Z,100.00
2019-05-20T23:52:30.712Z,100.00
2019-05-20T23:54:59.438Z,100.00
2019-05-20T23:57:28.184Z,100.00
2019-05-20T23:59:56.927Z,100.00
